sensor_id;sensor_type;location;lat;lon;timestamp;P1;durP1;ratioP1;P2;durP2;ratioP2
23732;SDS011;12047;53.450;-2.286;2023-11-22T00:03:03;17.15;;;10.15;;
23732;SDS011;12047;53.450;-2.286;2023-11-22T00:08:04;15.75;;;9.02;;
23732;SDS011;12047;53.450;-2.286;2023-11-22T00:13:04;17.13;;;9.35;;
23732;SDS011;12047;53.450;-2.286;2023-11-22T00:18:05;17.63;;;9.50;;
23732;SDS011;12047;53.450;-2.286;2023-11-22T00:23:05;14.20;;;9.13;;
23732;SDS011;12047;53.450;-2.286;2023-11-22T00:28:06;16.33;;;9.13;;
23732;SDS011;12047;53.450;-2.286;2023-11-22T00:33:06;17.45;;;9.85;;
23732;SDS011;12047;53.450;-2.286;2023-11-22T00:38:07;16.95;;;10.10;;
23732;SDS011;12047;53.450;-2.286;2023-11-22T00:43:07;15.98;;;9.73;;
23732;SDS011;12047;53.450;-2.286;2023-11-22T00:48:08;12.35;;;9.52;;
23732;SDS011;12047;53.450;-2.286;2023-11-22T00:53:09;17.58;;;9.18;;
23732;SDS011;12047;53.450;-2.286;2023-11-22T00:58:10;14.05;;;9.13;;
23732;SDS011;12047;53.450;-2.286;2023-11-22T01:03:10;15.68;;;9.93;;
23732;SDS011;12047;53.450;-2.286;2023-11-22T01:08:11;13.65;;;9.43;;
23732;SDS011;12047;53.450;-2.286;2023-11-22T01:13:13;14.25;;;9.95;;
23732;SDS011;12047;53.450;-2.286;2023-11-22T01:18:14;15.98;;;10.43;;
23732;SDS011;12047;53.450;-2.286;2023-11-22T01:23:15;14.25;;;9.68;;
23732;SDS011;12047;53.450;-2.286;2023-11-22T01:28:16;14.77;;;9.68;;
23732;SDS011;12047;53.450;-2.286;2023-11-22T01:33:17;18.55;;;10.07;;
23732;SDS011;12047;53.450;-2.286;2023-11-22T01:38:18;17.88;;;10.32;;
23732;SDS011;12047;53.450;-2.286;2023-11-22T01:43:19;18.58;;;10.35;;
23732;SDS011;12047;53.450;-2.286;2023-11-22T01:48:21;17.25;;;10.80;;
23732;SDS011;12047;53.450;-2.286;2023-11-22T01:53:22;14.73;;;10.10;;
23732;SDS011;12047;53.450;-2.286;2023-11-22T01:58:24;13.52;;;9.60;;
23732;SDS011;12047;53.450;-2.286;2023-11-22T02:03:25;14.00;;;9.93;;
23732;SDS011;12047;53.450;-2.286;2023-11-22T02:08:25;17.40;;;9.75;;
23732;SDS011;12047;53.450;-2.286;2023-11-22T02:13:28;11.55;;;8.60;;
23732;SDS011;12047;53.450;-2.286;2023-11-22T02:18:31;13.02;;;8.70;;
23732;SDS011;12047;53.450;-2.286;2023-11-22T02:23:32;10.80;;;7.20;;
23732;SDS011;12047;53.450;-2.286;2023-11-22T02:28:32;14.65;;;7.45;;
23732;SDS011;12047;53.450;-2.286;2023-11-22T02:33:33;11.23;;;7.60;;
23732;SDS011;12047;53.450;-2.286;2023-11-22T02:38:33;12.80;;;8.00;;
23732;SDS011;12047;53.450;-2.286;2023-11-22T02:43:35;11.30;;;7.75;;
23732;SDS011;12047;53.450;-2.286;2023-11-22T02:48:35;12.55;;;7.63;;
23732;SDS011;12047;53.450;-2.286;2023-11-22T02:53:37;11.23;;;7.10;;
23732;SDS011;12047;53.450;-2.286;2023-11-22T02:58:37;14.27;;;6.90;;
23732;SDS011;12047;53.450;-2.286;2023-11-22T03:03:38;11.57;;;6.88;;
23732;SDS011;12047;53.450;-2.286;2023-11-22T03:08:39;13.98;;;6.72;;
23732;SDS011;12047;53.450;-2.286;2023-11-22T03:13:40;10.60;;;5.95;;
23732;SDS011;12047;53.450;-2.286;2023-11-22T03:18:40;9.07;;;5.50;;
23732;SDS011;12047;53.450;-2.286;2023-11-22T03:23:41;12.88;;;6.20;;
23732;SDS011;12047;53.450;-2.286;2023-11-22T03:28:42;10.70;;;5.90;;
23732;SDS011;12047;53.450;-2.286;2023-11-22T03:33:43;9.20;;;4.88;;
23732;SDS011;12047;53.450;-2.286;2023-11-22T03:38:44;11.70;;;5.72;;
23732;SDS011;12047;53.450;-2.286;2023-11-22T03:43:44;10.88;;;5.40;;
23732;SDS011;12047;53.450;-2.286;2023-11-22T03:48:45;8.38;;;5.20;;
23732;SDS011;12047;53.450;-2.286;2023-11-22T03:53:46;7.80;;;4.75;;
23732;SDS011;12047;53.450;-2.286;2023-11-22T03:58:46;8.13;;;5.30;;
23732;SDS011;12047;53.450;-2.286;2023-11-22T04:03:48;10.20;;;4.88;;
23732;SDS011;12047;53.450;-2.286;2023-11-22T04:08:49;8.70;;;4.72;;
23732;SDS011;12047;53.450;-2.286;2023-11-22T04:13:50;8.07;;;4.50;;
23732;SDS011;12047;53.450;-2.286;2023-11-22T04:18:50;9.52;;;4.25;;
23732;SDS011;12047;53.450;-2.286;2023-11-22T04:23:50;8.32;;;4.53;;
23732;SDS011;12047;53.450;-2.286;2023-11-22T04:28:52;8.07;;;4.05;;
23732;SDS011;12047;53.450;-2.286;2023-11-22T04:33:53;8.07;;;4.15;;
23732;SDS011;12047;53.450;-2.286;2023-11-22T04:38:54;9.65;;;4.13;;
23732;SDS011;12047;53.450;-2.286;2023-11-22T04:43:54;7.63;;;3.80;;
23732;SDS011;12047;53.450;-2.286;2023-11-22T04:48:55;8.88;;;4.10;;
23732;SDS011;12047;53.450;-2.286;2023-11-22T04:53:55;9.05;;;3.67;;
23732;SDS011;12047;53.450;-2.286;2023-11-22T04:58:56;8.45;;;3.60;;
23732;SDS011;12047;53.450;-2.286;2023-11-22T05:03:57;7.97;;;3.63;;
23732;SDS011;12047;53.450;-2.286;2023-11-22T05:08:57;8.10;;;3.63;;
23732;SDS011;12047;53.450;-2.286;2023-11-22T05:13:57;7.53;;;3.50;;
23732;SDS011;12047;53.450;-2.286;2023-11-22T05:18:58;5.88;;;3.75;;
23732;SDS011;12047;53.450;-2.286;2023-11-22T05:23:58;6.72;;;3.85;;
23732;SDS011;12047;53.450;-2.286;2023-11-22T05:28:59;7.50;;;4.10;;
23732;SDS011;12047;53.450;-2.286;2023-11-22T05:33:59;6.90;;;3.30;;
23732;SDS011;12047;53.450;-2.286;2023-11-22T05:38:59;9.93;;;3.90;;
23732;SDS011;12047;53.450;-2.286;2023-11-22T05:44:00;6.95;;;3.95;;
23732;SDS011;12047;53.450;-2.286;2023-11-22T05:49:00;6.80;;;4.30;;
23732;SDS011;12047;53.450;-2.286;2023-11-22T05:54:01;7.53;;;3.92;;
23732;SDS011;12047;53.450;-2.286;2023-11-22T05:59:01;7.65;;;3.55;;
23732;SDS011;12047;53.450;-2.286;2023-11-22T06:04:02;6.88;;;3.83;;
23732;SDS011;12047;53.450;-2.286;2023-11-22T06:09:03;7.35;;;3.60;;
23732;SDS011;12047;53.450;-2.286;2023-11-22T06:14:05;6.65;;;3.70;;
23732;SDS011;12047;53.450;-2.286;2023-11-22T06:19:06;6.30;;;3.90;;
23732;SDS011;12047;53.450;-2.286;2023-11-22T06:24:07;10.15;;;4.30;;
23732;SDS011;12047;53.450;-2.286;2023-11-22T06:29:09;13.82;;;5.68;;
23732;SDS011;12047;53.450;-2.286;2023-11-22T06:34:09;8.68;;;4.68;;
23732;SDS011;12047;53.450;-2.286;2023-11-22T06:39:10;9.65;;;4.80;;
23732;SDS011;12047;53.450;-2.286;2023-11-22T06:44:13;8.77;;;4.22;;
23732;SDS011;12047;53.450;-2.286;2023-11-22T06:49:13;5.75;;;3.78;;
23732;SDS011;12047;53.450;-2.286;2023-11-22T06:54:14;9.00;;;4.03;;
23732;SDS011;12047;53.450;-2.286;2023-11-22T06:59:15;7.65;;;3.45;;
23732;SDS011;12047;53.450;-2.286;2023-11-22T07:04:15;11.48;;;4.30;;
23732;SDS011;12047;53.450;-2.286;2023-11-22T07:09:15;9.23;;;4.20;;
23732;SDS011;12047;53.450;-2.286;2023-11-22T07:14:16;5.53;;;3.63;;
23732;SDS011;12047;53.450;-2.286;2023-11-22T07:19:16;6.82;;;3.55;;
23732;SDS011;12047;53.450;-2.286;2023-11-22T07:24:17;8.48;;;3.55;;
23732;SDS011;12047;53.450;-2.286;2023-11-22T07:29:18;7.38;;;3.20;;
23732;SDS011;12047;53.450;-2.286;2023-11-22T07:34:19;8.45;;;3.28;;
23732;SDS011;12047;53.450;-2.286;2023-11-22T07:39:19;10.30;;;4.00;;
23732;SDS011;12047;53.450;-2.286;2023-11-22T07:44:21;7.68;;;3.53;;
23732;SDS011;12047;53.450;-2.286;2023-11-22T07:49:24;7.88;;;3.30;;
23732;SDS011;12047;53.450;-2.286;2023-11-22T07:54:26;7.57;;;3.72;;
23732;SDS011;12047;53.450;-2.286;2023-11-22T07:59:27;9.73;;;3.35;;
23732;SDS011;12047;53.450;-2.286;2023-11-22T08:04:27;11.05;;;3.70;;
23732;SDS011;12047;53.450;-2.286;2023-11-22T08:09:28;8.20;;;4.32;;
23732;SDS011;12047;53.450;-2.286;2023-11-22T08:14:32;6.65;;;3.85;;
23732;SDS011;12047;53.450;-2.286;2023-11-22T08:19:33;10.35;;;3.58;;
23732;SDS011;12047;53.450;-2.286;2023-11-22T08:24:33;7.38;;;3.50;;
23732;SDS011;12047;53.450;-2.286;2023-11-22T08:29:34;7.05;;;3.13;;
23732;SDS011;12047;53.450;-2.286;2023-11-22T08:34:35;8.95;;;4.20;;
23732;SDS011;12047;53.450;-2.286;2023-11-22T08:39:35;8.63;;;3.55;;
23732;SDS011;12047;53.450;-2.286;2023-11-22T08:44:36;7.28;;;3.10;;
23732;SDS011;12047;53.450;-2.286;2023-11-22T08:49:37;9.90;;;3.05;;
23732;SDS011;12047;53.450;-2.286;2023-11-22T08:54:38;11.38;;;4.47;;
23732;SDS011;12047;53.450;-2.286;2023-11-22T08:59:38;12.18;;;3.28;;
23732;SDS011;12047;53.450;-2.286;2023-11-22T09:04:39;9.77;;;2.88;;
23732;SDS011;12047;53.450;-2.286;2023-11-22T09:09:41;12.48;;;3.05;;
23732;SDS011;12047;53.450;-2.286;2023-11-22T09:14:43;5.40;;;2.55;;
23732;SDS011;12047;53.450;-2.286;2023-11-22T09:19:43;11.45;;;3.30;;
23732;SDS011;12047;53.450;-2.286;2023-11-22T09:24:44;10.00;;;3.13;;
23732;SDS011;12047;53.450;-2.286;2023-11-22T09:29:45;16.02;;;3.50;;
23732;SDS011;12047;53.450;-2.286;2023-11-22T09:34:45;9.27;;;2.80;;
23732;SDS011;12047;53.450;-2.286;2023-11-22T09:39:45;6.05;;;2.50;;
23732;SDS011;12047;53.450;-2.286;2023-11-22T09:44:46;15.77;;;4.28;;
23732;SDS011;12047;53.450;-2.286;2023-11-22T09:49:46;9.77;;;3.35;;
23732;SDS011;12047;53.450;-2.286;2023-11-22T09:54:51;11.07;;;3.10;;
23732;SDS011;12047;53.450;-2.286;2023-11-22T09:59:54;9.55;;;3.55;;
23732;SDS011;12047;53.450;-2.286;2023-11-22T10:04:57;9.70;;;3.75;;
23732;SDS011;12047;53.450;-2.286;2023-11-22T10:09:58;14.88;;;4.40;;
23732;SDS011;12047;53.450;-2.286;2023-11-22T10:15:19;11.52;;;4.65;;
23732;SDS011;12047;53.450;-2.286;2023-11-22T10:20:20;12.70;;;5.10;;
23732;SDS011;12047;53.450;-2.286;2023-11-22T10:25:21;13.10;;;5.07;;
23732;SDS011;12047;53.450;-2.286;2023-11-22T10:30:23;13.13;;;5.40;;
23732;SDS011;12047;53.450;-2.286;2023-11-22T10:35:24;14.07;;;5.78;;
23732;SDS011;12047;53.450;-2.286;2023-11-22T10:40:25;11.35;;;5.70;;
23732;SDS011;12047;53.450;-2.286;2023-11-22T10:45:26;12.55;;;6.30;;
23732;SDS011;12047;53.450;-2.286;2023-11-22T10:50:31;14.02;;;6.18;;
23732;SDS011;12047;53.450;-2.286;2023-11-22T10:55:32;17.52;;;7.35;;
23732;SDS011;12047;53.450;-2.286;2023-11-22T11:00:33;21.85;;;6.93;;
23732;SDS011;12047;53.450;-2.286;2023-11-22T11:05:35;16.60;;;6.38;;
23732;SDS011;12047;53.450;-2.286;2023-11-22T11:10:41;12.82;;;6.72;;
23732;SDS011;12047;53.450;-2.286;2023-11-22T11:15:43;13.40;;;6.43;;
23732;SDS011;12047;53.450;-2.286;2023-11-22T11:25:50;13.63;;;5.53;;
23732;SDS011;12047;53.450;-2.286;2023-11-22T11:30:51;9.30;;;4.55;;
23732;SDS011;12047;53.450;-2.286;2023-11-22T11:35:56;9.82;;;4.53;;
23732;SDS011;12047;53.450;-2.286;2023-11-22T11:40:58;9.77;;;3.55;;
23732;SDS011;12047;53.450;-2.286;2023-11-22T11:46:08;6.97;;;3.28;;
23732;SDS011;12047;53.450;-2.286;2023-11-22T11:51:14;8.07;;;3.03;;
23732;SDS011;12047;53.450;-2.286;2023-11-22T11:56:15;10.00;;;2.17;;
23732;SDS011;12047;53.450;-2.286;2023-11-22T12:01:18;7.55;;;1.75;;
23732;SDS011;12047;53.450;-2.286;2023-11-22T12:06:21;4.15;;;1.17;;
23732;SDS011;12047;53.450;-2.286;2023-11-22T12:11:22;6.65;;;1.42;;
23732;SDS011;12047;53.450;-2.286;2023-11-22T12:16:22;4.18;;;1.23;;
23732;SDS011;12047;53.450;-2.286;2023-11-22T12:21:23;6.57;;;1.30;;
23732;SDS011;12047;53.450;-2.286;2023-11-22T12:26:24;4.15;;;1.15;;
23732;SDS011;12047;53.450;-2.286;2023-11-22T12:31:24;6.13;;;1.23;;
23732;SDS011;12047;53.450;-2.286;2023-11-22T12:36:30;3.83;;;1.00;;
23732;SDS011;12047;53.450;-2.286;2023-11-22T12:41:31;5.85;;;1.00;;
23732;SDS011;12047;53.450;-2.286;2023-11-22T12:51:59;4.37;;;0.97;;
23732;SDS011;12047;53.450;-2.286;2023-11-22T12:56:59;4.93;;;1.30;;
23732;SDS011;12047;53.450;-2.286;2023-11-22T13:02:00;5.85;;;1.42;;
23732;SDS011;12047;53.450;-2.286;2023-11-22T13:07:00;7.45;;;2.22;;
23732;SDS011;12047;53.450;-2.286;2023-11-22T13:12:01;4.60;;;0.98;;
23732;SDS011;12047;53.450;-2.286;2023-11-22T13:17:02;6.75;;;1.17;;
23732;SDS011;12047;53.450;-2.286;2023-11-22T13:22:02;4.45;;;0.60;;
23732;SDS011;12047;53.450;-2.286;2023-11-22T13:27:02;5.22;;;1.15;;
23732;SDS011;12047;53.450;-2.286;2023-11-22T13:32:03;3.30;;;1.10;;
23732;SDS011;12047;53.450;-2.286;2023-11-22T13:37:04;5.45;;;1.10;;
23732;SDS011;12047;53.450;-2.286;2023-11-22T13:42:05;7.25;;;1.10;;
23732;SDS011;12047;53.450;-2.286;2023-11-22T13:47:06;4.22;;;1.20;;
23732;SDS011;12047;53.450;-2.286;2023-11-22T13:52:07;4.38;;;1.33;;
23732;SDS011;12047;53.450;-2.286;2023-11-22T13:57:08;3.97;;;1.23;;
23732;SDS011;12047;53.450;-2.286;2023-11-22T14:02:08;7.28;;;1.45;;
23732;SDS011;12047;53.450;-2.286;2023-11-22T14:07:09;7.05;;;1.23;;
23732;SDS011;12047;53.450;-2.286;2023-11-22T14:12:09;2.67;;;1.17;;
23732;SDS011;12047;53.450;-2.286;2023-11-22T14:17:10;9.60;;;1.77;;
23732;SDS011;12047;53.450;-2.286;2023-11-22T14:22:10;4.03;;;1.33;;
23732;SDS011;12047;53.450;-2.286;2023-11-22T14:27:11;8.90;;;1.60;;
23732;SDS011;12047;53.450;-2.286;2023-11-22T14:32:12;8.80;;;1.42;;
23732;SDS011;12047;53.450;-2.286;2023-11-22T14:37:12;10.57;;;2.10;;
23732;SDS011;12047;53.450;-2.286;2023-11-22T14:42:15;8.00;;;1.65;;
23732;SDS011;12047;53.450;-2.286;2023-11-22T14:47:18;7.65;;;1.50;;
23732;SDS011;12047;53.450;-2.286;2023-11-22T14:52:24;11.68;;;1.50;;
23732;SDS011;12047;53.450;-2.286;2023-11-22T14:57:24;5.53;;;1.70;;
23732;SDS011;12047;53.450;-2.286;2023-11-22T15:02:25;6.17;;;1.40;;
23732;SDS011;12047;53.450;-2.286;2023-11-22T15:07:26;6.60;;;1.30;;
23732;SDS011;12047;53.450;-2.286;2023-11-22T15:12:27;8.15;;;1.52;;
23732;SDS011;12047;53.450;-2.286;2023-11-22T15:17:30;10.75;;;1.58;;
23732;SDS011;12047;53.450;-2.286;2023-11-22T15:22:31;10.20;;;1.35;;
23732;SDS011;12047;53.450;-2.286;2023-11-22T15:27:32;6.55;;;1.40;;
23732;SDS011;12047;53.450;-2.286;2023-11-22T15:32:32;10.57;;;1.85;;
23732;SDS011;12047;53.450;-2.286;2023-11-22T15:37:33;6.32;;;1.60;;
23732;SDS011;12047;53.450;-2.286;2023-11-22T15:42:33;5.22;;;1.13;;
23732;SDS011;12047;53.450;-2.286;2023-11-22T15:47:36;9.82;;;1.67;;
23732;SDS011;12047;53.450;-2.286;2023-11-22T15:52:40;9.70;;;1.83;;
23732;SDS011;12047;53.450;-2.286;2023-11-22T15:57:40;9.95;;;2.08;;
23732;SDS011;12047;53.450;-2.286;2023-11-22T16:02:41;8.15;;;1.90;;
23732;SDS011;12047;53.450;-2.286;2023-11-22T16:07:41;5.07;;;1.65;;
23732;SDS011;12047;53.450;-2.286;2023-11-22T16:12:42;9.68;;;1.50;;
23732;SDS011;12047;53.450;-2.286;2023-11-22T16:17:43;13.98;;;2.10;;
23732;SDS011;12047;53.450;-2.286;2023-11-22T16:22:43;9.13;;;1.92;;
23732;SDS011;12047;53.450;-2.286;2023-11-22T16:27:47;4.97;;;1.33;;
23732;SDS011;12047;53.450;-2.286;2023-11-22T16:32:47;8.10;;;1.52;;
23732;SDS011;12047;53.450;-2.286;2023-11-22T16:37:48;10.65;;;1.42;;
23732;SDS011;12047;53.450;-2.286;2023-11-22T16:42:48;6.18;;;1.10;;
23732;SDS011;12047;53.450;-2.286;2023-11-22T16:47:49;9.00;;;2.28;;
23732;SDS011;12047;53.450;-2.286;2023-11-22T16:52:49;8.68;;;1.50;;
23732;SDS011;12047;53.450;-2.286;2023-11-22T16:57:50;7.50;;;2.00;;
23732;SDS011;12047;53.450;-2.286;2023-11-22T17:02:51;4.32;;;1.42;;
23732;SDS011;12047;53.450;-2.286;2023-11-22T17:07:58;7.95;;;4.00;;
23732;SDS011;12047;53.450;-2.286;2023-11-22T17:12:59;5.53;;;1.60;;
23732;SDS011;12047;53.450;-2.286;2023-11-22T17:17:59;8.00;;;1.55;;
23732;SDS011;12047;53.450;-2.286;2023-11-22T17:23:01;5.65;;;1.58;;
23732;SDS011;12047;53.450;-2.286;2023-11-22T17:28:01;5.20;;;1.58;;
23732;SDS011;12047;53.450;-2.286;2023-11-22T17:33:02;7.00;;;1.90;;
23732;SDS011;12047;53.450;-2.286;2023-11-22T17:38:03;6.55;;;2.28;;
23732;SDS011;12047;53.450;-2.286;2023-11-22T17:43:04;10.68;;;2.30;;
23732;SDS011;12047;53.450;-2.286;2023-11-22T17:48:05;9.68;;;2.30;;
23732;SDS011;12047;53.450;-2.286;2023-11-22T17:53:05;6.25;;;2.60;;
23732;SDS011;12047;53.450;-2.286;2023-11-22T17:58:06;8.50;;;2.00;;
23732;SDS011;12047;53.450;-2.286;2023-11-22T18:03:06;4.95;;;1.65;;
23732;SDS011;12047;53.450;-2.286;2023-11-22T18:08:07;4.85;;;1.50;;
23732;SDS011;12047;53.450;-2.286;2023-11-22T18:13:08;6.40;;;1.90;;
23732;SDS011;12047;53.450;-2.286;2023-11-22T18:18:09;4.88;;;1.65;;
23732;SDS011;12047;53.450;-2.286;2023-11-22T18:23:10;3.10;;;1.20;;
23732;SDS011;12047;53.450;-2.286;2023-11-22T18:28:10;9.35;;;1.85;;
23732;SDS011;12047;53.450;-2.286;2023-11-22T18:33:12;6.70;;;1.40;;
23732;SDS011;12047;53.450;-2.286;2023-11-22T18:38:12;7.32;;;1.70;;
23732;SDS011;12047;53.450;-2.286;2023-11-22T18:43:14;6.38;;;1.95;;
23732;SDS011;12047;53.450;-2.286;2023-11-22T18:48:17;8.80;;;2.45;;
23732;SDS011;12047;53.450;-2.286;2023-11-22T18:53:17;8.85;;;2.50;;
23732;SDS011;12047;53.450;-2.286;2023-11-22T18:58:21;6.07;;;2.00;;
23732;SDS011;12047;53.450;-2.286;2023-11-22T19:03:23;8.32;;;2.60;;
23732;SDS011;12047;53.450;-2.286;2023-11-22T19:08:24;4.32;;;2.25;;
23732;SDS011;12047;53.450;-2.286;2023-11-22T19:13:24;6.63;;;1.95;;
23732;SDS011;12047;53.450;-2.286;2023-11-22T19:18:25;10.20;;;2.70;;
23732;SDS011;12047;53.450;-2.286;2023-11-22T19:23:25;7.55;;;2.30;;
23732;SDS011;12047;53.450;-2.286;2023-11-22T19:28:26;9.02;;;3.47;;
23732;SDS011;12047;53.450;-2.286;2023-11-22T19:33:27;8.80;;;3.00;;
23732;SDS011;12047;53.450;-2.286;2023-11-22T19:38:27;9.82;;;2.72;;
23732;SDS011;12047;53.450;-2.286;2023-11-22T19:43:30;5.82;;;2.38;;
23732;SDS011;12047;53.450;-2.286;2023-11-22T19:48:31;10.05;;;2.40;;
23732;SDS011;12047;53.450;-2.286;2023-11-22T19:53:32;7.47;;;2.08;;
23732;SDS011;12047;53.450;-2.286;2023-11-22T19:58:33;8.27;;;2.20;;
23732;SDS011;12047;53.450;-2.286;2023-11-22T20:03:34;8.43;;;2.60;;
23732;SDS011;12047;53.450;-2.286;2023-11-22T20:08:34;6.03;;;1.83;;
23732;SDS011;12047;53.450;-2.286;2023-11-22T20:13:35;8.55;;;2.75;;
23732;SDS011;12047;53.450;-2.286;2023-11-22T20:18:39;8.82;;;1.70;;
23732;SDS011;12047;53.450;-2.286;2023-11-22T20:23:40;6.00;;;1.90;;
23732;SDS011;12047;53.450;-2.286;2023-11-22T20:28:40;10.30;;;2.20;;
23732;SDS011;12047;53.450;-2.286;2023-11-22T20:33:41;7.65;;;2.30;;
23732;SDS011;12047;53.450;-2.286;2023-11-22T20:38:42;9.73;;;2.00;;
23732;SDS011;12047;53.450;-2.286;2023-11-22T20:43:49;8.90;;;2.00;;
23732;SDS011;12047;53.450;-2.286;2023-11-22T20:48:49;7.80;;;2.72;;
23732;SDS011;12047;53.450;-2.286;2023-11-22T20:53:50;11.98;;;3.05;;
23732;SDS011;12047;53.450;-2.286;2023-11-22T20:58:50;14.18;;;2.92;;
23732;SDS011;12047;53.450;-2.286;2023-11-22T21:03:51;11.27;;;2.83;;
23732;SDS011;12047;53.450;-2.286;2023-11-22T21:08:51;17.92;;;3.20;;
23732;SDS011;12047;53.450;-2.286;2023-11-22T21:13:52;15.40;;;3.03;;
23732;SDS011;12047;53.450;-2.286;2023-11-22T21:18:52;9.48;;;2.60;;
23732;SDS011;12047;53.450;-2.286;2023-11-22T21:23:53;10.65;;;2.90;;
23732;SDS011;12047;53.450;-2.286;2023-11-22T21:28:55;8.15;;;2.60;;
23732;SDS011;12047;53.450;-2.286;2023-11-22T21:33:56;11.18;;;2.45;;
23732;SDS011;12047;53.450;-2.286;2023-11-22T21:38:57;12.65;;;2.92;;
23732;SDS011;12047;53.450;-2.286;2023-11-22T21:43:57;11.88;;;2.65;;
23732;SDS011;12047;53.450;-2.286;2023-11-22T21:48:59;15.95;;;3.05;;
23732;SDS011;12047;53.450;-2.286;2023-11-22T21:53:59;11.07;;;2.40;;
23732;SDS011;12047;53.450;-2.286;2023-11-22T21:59:01;14.32;;;2.78;;
23732;SDS011;12047;53.450;-2.286;2023-11-22T22:04:02;13.30;;;3.00;;
23732;SDS011;12047;53.450;-2.286;2023-11-22T22:09:12;16.48;;;3.30;;
23732;SDS011;12047;53.450;-2.286;2023-11-22T22:14:13;11.27;;;2.75;;
23732;SDS011;12047;53.450;-2.286;2023-11-22T22:19:13;11.25;;;2.83;;
23732;SDS011;12047;53.450;-2.286;2023-11-22T22:24:14;15.02;;;2.95;;
23732;SDS011;12047;53.450;-2.286;2023-11-22T22:29:15;15.43;;;2.80;;
23732;SDS011;12047;53.450;-2.286;2023-11-22T22:34:15;8.27;;;2.55;;
23732;SDS011;12047;53.450;-2.286;2023-11-22T22:39:16;13.77;;;2.90;;
23732;SDS011;12047;53.450;-2.286;2023-11-22T22:44:16;12.75;;;3.20;;
23732;SDS011;12047;53.450;-2.286;2023-11-22T22:49:17;11.98;;;2.53;;
23732;SDS011;12047;53.450;-2.286;2023-11-22T22:54:17;19.02;;;2.67;;
23732;SDS011;12047;53.450;-2.286;2023-11-22T22:59:18;17.25;;;2.90;;
23732;SDS011;12047;53.450;-2.286;2023-11-22T23:04:18;13.02;;;2.67;;
23732;SDS011;12047;53.450;-2.286;2023-11-22T23:09:19;14.05;;;2.70;;
23732;SDS011;12047;53.450;-2.286;2023-11-22T23:14:22;13.77;;;3.13;;
23732;SDS011;12047;53.450;-2.286;2023-11-22T23:19:22;13.15;;;2.90;;
23732;SDS011;12047;53.450;-2.286;2023-11-22T23:24:22;16.10;;;3.13;;
23732;SDS011;12047;53.450;-2.286;2023-11-22T23:29:23;11.77;;;3.28;;
23732;SDS011;12047;53.450;-2.286;2023-11-22T23:34:23;8.90;;;2.08;;
23732;SDS011;12047;53.450;-2.286;2023-11-22T23:39:24;7.75;;;2.35;;
23732;SDS011;12047;53.450;-2.286;2023-11-22T23:44:25;12.57;;;3.15;;
23732;SDS011;12047;53.450;-2.286;2023-11-22T23:49:26;11.93;;;2.50;;
23732;SDS011;12047;53.450;-2.286;2023-11-22T23:54:27;12.57;;;2.67;;
23732;SDS011;12047;53.450;-2.286;2023-11-22T23:59:28;12.55;;;2.72;;
